createdAt,value
2019-02-17T00:12:24.993Z,62.0
2019-02-17T00:29:00.297Z,62.8
2019-02-17T00:45:35.501Z,62.8
2019-02-17T01:02:10.543Z,63.2
2019-02-17T01:35:20.529Z,64.0
2019-02-17T01:51:55.282Z,64.8
2019-02-17T02:08:30.005Z,64.4
2019-02-17T02:25:04.766Z,64.4
2019-02-17T02:41:39.570Z,64.8
2019-02-17T02:58:14.250Z,65.2
2019-02-17T03:14:48.716Z,65.2
2019-02-17T03:31:23.197Z,65.2
2019-02-17T03:47:57.678Z,65.6
2019-02-17T04:04:31.981Z,65.6
2019-02-17T04:21:06.188Z,66.4
2019-02-17T04:54:14.454Z,66.8
2019-02-17T05:10:48.707Z,66.8
2019-02-17T05:27:22.962Z,67.2
2019-02-17T05:43:56.988Z,66.8
2019-02-17T06:00:30.973Z,67.2
2019-02-17T06:17:04.784Z,67.6
2019-02-17T06:33:38.718Z,68.0
2019-02-17T06:50:12.323Z,68.0
2019-02-17T07:06:46.104Z,68.0
2019-02-17T07:23:19.857Z,68.0
2019-02-17T07:39:53.759Z,68.4
2019-02-17T08:13:02.118Z,68.8
2019-02-17T08:29:36.805Z,68.4
2019-02-17T08:46:11.838Z,68.0
2019-02-17T08:59:28.636Z,67.2
2019-02-17T09:16:04.980Z,66.8
2019-02-17T09:32:41.469Z,66.4
2019-02-17T09:45:59.116Z,65.2
2019-02-17T10:02:36.519Z,64.8
2019-02-17T10:15:54.717Z,64.4
2019-02-17T10:29:13.193Z,64.0
2019-02-17T10:39:12.481Z,63.2
2019-02-17T10:45:52.184Z,62.0
2019-02-17T11:15:51.861Z,60.4
2019-02-17T11:29:12.326Z,59.6
2019-02-17T11:45:53.581Z,57.6
2019-02-17T12:02:35.074Z,56.4
2019-02-17T12:19:17.175Z,56.0
2019-02-17T12:35:59.487Z,54.4
2019-02-17T13:09:25.198Z,52.0
2019-02-17T13:26:08.408Z,50.4
2019-02-17T13:42:51.725Z,49.6
2019-02-17T13:59:35.276Z,49.2
2019-02-17T14:16:18.917Z,48.8
2019-02-17T14:49:45.992Z,47.2
2019-02-17T15:06:29.407Z,46.4
2019-02-17T15:23:12.805Z,46.0
2019-02-17T15:39:55.855Z,46.4
2019-02-17T15:56:38.753Z,47.6
2019-02-17T16:10:00.949Z,48.4
2019-02-17T16:26:42.769Z,48.8
2019-02-17T16:40:04.144Z,49.2
2019-02-17T16:56:45.409Z,50.4
2019-02-17T17:13:26.318Z,51.2
2019-02-17T17:26:46.717Z,51.6
2019-02-17T17:43:26.979Z,52.4
2019-02-17T18:00:07.958Z,52.0
2019-02-17T18:16:46.626Z,52.4
2019-02-17T18:33:26.307Z,53.2
2019-02-17T18:50:05.853Z,53.2
2019-02-17T19:06:44.869Z,53.2
2019-02-17T19:23:24.061Z,52.8
2019-02-17T19:40:03.232Z,52.0
2019-02-17T19:56:42.143Z,52.8
2019-02-17T20:13:20.791Z,53.6
2019-02-17T20:46:37.854Z,54.4
2019-02-17T21:03:15.676Z,54.8
2019-02-17T21:19:53.458Z,54.8
2019-02-17T21:36:30.810Z,54.8
2019-02-17T21:53:10.388Z,54.8
2019-02-17T22:09:45.708Z,54.8
2019-02-17T22:26:23.139Z,55.2
2019-02-17T22:43:00.084Z,55.6
2019-02-17T22:59:36.938Z,55.6
2019-02-17T23:16:13.718Z,56.0
2019-02-17T23:32:50.455Z,56.4
2019-02-17T23:49:27.195Z,56.4
